Aviation Digital Data Service (ADDS)

Output produced by METARs form (1225 UTC 16 July 2019)
found at http://www.aviationweather.gov/metar/data/
 
TAF TDPD 161100Z 1612/1712 11008KT 9999 SCT018 
     PROB30 
     TEMPO 1702/1708 SHRA BKN015